createdAt,value
2018-04-06T00:00:18.330Z,101350.17
2018-04-06T00:02:45.835Z,101349.33
2018-04-06T00:05:13.398Z,101350.44
2018-04-06T00:07:40.977Z,101349.69
2018-04-06T00:10:08.538Z,101351.45
2018-04-06T00:12:36.046Z,101348.91
2018-04-06T00:15:03.623Z,101347.84
2018-04-06T00:17:31.132Z,101348.20
2018-04-06T00:19:58.723Z,101351.73
2018-04-06T00:22:26.287Z,101358.89
2018-04-06T00:24:53.895Z,101355.59
2018-04-06T00:27:21.398Z,101352.16
2018-04-06T00:29:48.912Z,101353.25
2018-04-06T00:32:16.424Z,101352.45
2018-04-06T00:34:43.936Z,101357.16
2018-04-06T00:37:11.441Z,101351.61
2018-04-06T00:39:38.938Z,101347.27
2018-04-06T00:42:06.440Z,101351.00
2018-04-06T00:44:33.914Z,101351.91
2018-04-06T00:47:01.439Z,101348.53
2018-04-06T00:49:28.936Z,101349.75
2018-04-06T00:51:56.639Z,101354.25
2018-04-06T00:54:24.134Z,101356.81
2018-04-06T00:56:51.632Z,101360.61
2018-04-06T00:59:19.122Z,101360.06
2018-04-06T01:01:46.653Z,101356.72
2018-04-06T01:04:14.167Z,101355.00
2018-04-06T01:06:41.667Z,101355.81
2018-04-06T01:09:09.160Z,101360.30
2018-04-06T01:11:36.638Z,101368.86
2018-04-06T01:14:04.136Z,101376.02
2018-04-06T01:16:31.614Z,101369.70
2018-04-06T01:18:59.106Z,101373.50
2018-04-06T01:21:26.610Z,101376.41
2018-04-06T01:23:54.186Z,101381.55
2018-04-06T01:26:21.701Z,101381.95
2018-04-06T01:28:49.244Z,101383.16
2018-04-06T01:31:16.727Z,101376.02
2018-04-06T01:33:44.225Z,101374.27
2018-04-06T01:36:11.745Z,101375.45
2018-04-06T01:38:39.264Z,101375.73
2018-04-06T01:41:06.792Z,101377.48
2018-04-06T01:43:34.284Z,101378.69
2018-04-06T01:46:01.774Z,101377.22
2018-04-06T01:48:29.299Z,101375.53
2018-04-06T01:50:56.799Z,101380.45
2018-04-06T01:53:24.393Z,101381.66
2018-04-06T01:55:51.905Z,101382.42
2018-04-06T01:58:19.412Z,101378.22
2018-04-06T02:00:46.893Z,101393.16
2018-04-06T02:03:14.480Z,101390.98
2018-04-06T02:05:41.994Z,101396.02
2018-04-06T02:08:09.504Z,101392.97
2018-04-06T02:10:37.117Z,101393.42
2018-04-06T02:13:04.598Z,101395.95
2018-04-06T02:15:32.092Z,101392.97
2018-04-06T02:17:59.654Z,101399.27
2018-04-06T02:20:27.140Z,101392.58
2018-04-06T02:22:54.644Z,101387.56
2018-04-06T02:25:22.188Z,101394.23
2018-04-06T02:27:49.676Z,101395.84
2018-04-06T02:30:17.209Z,101393.52
2018-04-06T02:32:44.726Z,101398.02
2018-04-06T02:35:12.219Z,101402.42
2018-04-06T02:37:39.690Z,101409.09
2018-04-06T02:40:07.202Z,101411.03
2018-04-06T02:42:34.736Z,101415.72
2018-04-06T02:45:02.259Z,101418.88
2018-04-06T02:47:29.752Z,101414.25
2018-04-06T02:49:57.299Z,101424.34
2018-04-06T02:52:24.834Z,101422.70
2018-04-06T02:54:52.330Z,101424.32
2018-04-06T02:57:19.831Z,101425.85
2018-04-06T02:59:47.328Z,101426.64
2018-04-06T03:02:14.843Z,101428.08
2018-04-06T03:04:42.376Z,101425.29
2018-04-06T03:07:09.866Z,101423.11
2018-04-06T03:09:37.338Z,101428.11
2018-04-06T03:12:04.821Z,101425.15
2018-04-06T03:14:32.306Z,101426.77
2018-04-06T03:16:59.791Z,101433.06
2018-04-06T03:19:27.263Z,101424.58
2018-04-06T03:21:54.748Z,101435.43
2018-04-06T03:24:22.247Z,101431.91
2018-04-06T03:26:49.778Z,101433.11
2018-04-06T03:29:17.267Z,101431.69
2018-04-06T03:31:44.775Z,101435.90
2018-04-06T03:34:12.264Z,101432.03
2018-04-06T03:36:39.752Z,101439.81
2018-04-06T03:39:07.236Z,101439.80
2018-04-06T03:41:34.702Z,101433.69
2018-04-06T03:44:02.219Z,101440.91
2018-04-06T03:46:29.722Z,101435.19
2018-04-06T03:48:57.226Z,101435.27
2018-04-06T03:51:24.707Z,101436.80
2018-04-06T03:53:52.199Z,101431.20
2018-04-06T03:56:19.679Z,101434.97
2018-04-06T03:58:47.184Z,101437.43
2018-04-06T04:01:14.682Z,101435.94
2018-04-06T04:03:42.181Z,101440.47
2018-04-06T04:06:09.670Z,101441.48
2018-04-06T04:08:37.152Z,101436.86
2018-04-06T04:11:04.723Z,101438.69
2018-04-06T04:13:32.233Z,101434.26
2018-04-06T04:15:59.732Z,101444.58
2018-04-06T04:18:27.265Z,101433.49
2018-04-06T04:20:54.757Z,101442.23
2018-04-06T04:23:22.232Z,101441.72
2018-04-06T04:25:50.086Z,101443.84
2018-04-06T04:28:17.592Z,101437.53
2018-04-06T04:30:45.097Z,101442.69
2018-04-06T04:33:12.601Z,101442.55
2018-04-06T04:35:40.082Z,101449.31
2018-04-06T04:38:07.572Z,101455.68
2018-04-06T04:40:35.043Z,101455.27
2018-04-06T04:43:02.564Z,101458.12
2018-04-06T04:45:30.074Z,101457.56
2018-04-06T04:47:57.561Z,101456.09
2018-04-06T04:50:25.042Z,101454.08
2018-04-06T04:52:52.509Z,101455.44
2018-04-06T04:55:20.056Z,101456.68
2018-04-06T04:57:47.534Z,101458.28
2018-04-06T05:00:15.055Z,101461.19
2018-04-06T05:02:42.564Z,101465.73
2018-04-06T05:05:10.050Z,101459.67
2018-04-06T05:07:37.529Z,101461.93
2018-04-06T05:10:04.999Z,101464.61
2018-04-06T05:12:32.479Z,101468.19
2018-04-06T05:14:59.934Z,101466.52
2018-04-06T05:17:27.444Z,101468.92
2018-04-06T05:19:54.926Z,101468.14
2018-04-06T05:22:22.409Z,101477.23
2018-04-06T05:24:49.956Z,101477.03
2018-04-06T05:27:17.493Z,101477.11
2018-04-06T05:29:44.990Z,101475.56
2018-04-06T05:32:12.496Z,101480.71
2018-04-06T05:34:40.031Z,101479.75
2018-04-06T05:37:07.537Z,101484.41
2018-04-06T05:39:35.023Z,101489.51
2018-04-06T05:42:02.554Z,101498.22
2018-04-06T05:44:31.565Z,101504.84
2018-04-06T05:47:02.618Z,101507.58
2018-04-06T05:49:32.743Z,101513.97
2018-04-06T05:52:01.271Z,101516.80
2018-04-06T05:54:28.763Z,101525.99
2018-04-06T05:56:56.273Z,101528.37
2018-04-06T05:59:24.217Z,101526.09
2018-04-06T06:01:53.434Z,101522.35
2018-04-06T06:04:20.966Z,101522.44
2018-04-06T06:06:48.460Z,101523.33
2018-04-06T06:09:15.961Z,101523.64
2018-04-06T06:11:43.829Z,101528.28
2018-04-06T06:14:11.826Z,101534.36
2018-04-06T06:16:39.334Z,101537.58
2018-04-06T06:19:06.840Z,101541.38
2018-04-06T06:21:34.371Z,101539.56
2018-04-06T06:24:01.862Z,101536.34
2018-04-06T06:26:30.040Z,101544.59
2018-04-06T06:28:57.565Z,101538.14
2018-04-06T06:31:25.034Z,101537.27
2018-04-06T06:33:52.545Z,101539.70
2018-04-06T06:36:20.210Z,101540.75
2018-04-06T06:38:49.948Z,101539.45
2018-04-06T06:41:17.508Z,101539.28
2018-04-06T06:43:45.025Z,101536.44
2018-04-06T06:46:12.545Z,101538.14
2018-04-06T06:48:40.068Z,101532.98
2018-04-06T06:51:07.582Z,101539.02
2018-04-06T06:53:35.071Z,101536.89
2018-04-06T06:56:02.562Z,101537.73
2018-04-06T06:58:30.043Z,101532.95
2018-04-06T07:00:57.633Z,101534.27
2018-04-06T07:03:25.085Z,101533.92
2018-04-06T07:05:52.571Z,101522.40
2018-04-06T07:08:21.732Z,101532.63
2018-04-06T07:10:49.231Z,101535.19
2018-04-06T07:13:16.741Z,101542.34
2018-04-06T07:15:44.257Z,101540.19
2018-04-06T07:18:13.259Z,101531.30
2018-04-06T07:20:40.774Z,101537.31
2018-04-06T07:23:08.279Z,101537.33
2018-04-06T07:25:38.119Z,101537.30
2018-04-06T07:28:05.635Z,101536.44
2018-04-06T07:30:34.372Z,101539.84
2018-04-06T07:33:03.719Z,101547.54
2018-04-06T07:35:31.228Z,101551.40
2018-04-06T07:37:58.706Z,101546.27
2018-04-06T07:40:29.980Z,101545.82
2018-04-06T07:42:57.768Z,101546.83
2018-04-06T07:45:25.266Z,101545.73
2018-04-06T07:47:56.608Z,101545.42
2018-04-06T07:50:24.121Z,101540.98
2018-04-06T07:52:58.095Z,101537.56
2018-04-06T07:55:25.636Z,101535.26
2018-04-06T07:57:53.132Z,101538.50
2018-04-06T08:00:22.209Z,101541.33
2018-04-06T08:02:49.700Z,101545.48
2018-04-06T08:05:19.546Z,101543.47
2018-04-06T08:07:47.048Z,101547.14
2018-04-06T08:10:14.535Z,101548.92
2018-04-06T08:12:42.083Z,101547.84
2018-04-06T08:15:09.586Z,101551.34
2018-04-06T08:17:37.102Z,101554.41
2018-04-06T08:20:04.586Z,101554.30
2018-04-06T08:22:32.074Z,101555.73
2018-04-06T08:24:59.577Z,101550.09
2018-04-06T08:27:28.058Z,101542.16
2018-04-06T08:29:55.559Z,101551.16
2018-04-06T08:32:23.060Z,101545.77
2018-04-06T08:34:50.566Z,101546.44
2018-04-06T08:37:18.074Z,101547.66
2018-04-06T08:39:45.560Z,101549.42
2018-04-06T08:42:14.238Z,101540.70
2018-04-06T08:44:41.786Z,101536.70
2018-04-06T08:47:09.270Z,101533.30
2018-04-06T08:49:36.786Z,101535.16
2018-04-06T08:52:04.307Z,101525.33
2018-04-06T08:54:32.315Z,101524.00
2018-04-06T08:56:59.829Z,101526.32
2018-04-06T08:59:27.719Z,101520.38
2018-04-06T09:01:55.202Z,101534.16
2018-04-06T09:04:22.690Z,101521.52
2018-04-06T09:06:50.198Z,101518.08
2018-04-06T09:09:17.674Z,101516.83
2018-04-06T09:11:45.162Z,101522.29
2018-04-06T09:14:12.648Z,101524.52
2018-04-06T09:16:40.214Z,101512.57
2018-04-06T09:19:07.697Z,101501.48
2018-04-06T09:21:35.205Z,101514.72
2018-04-06T09:24:02.691Z,101517.70
2018-04-06T09:26:30.813Z,101507.81
2018-04-06T09:28:58.304Z,101508.17
2018-04-06T09:31:26.066Z,101514.50
2018-04-06T09:33:53.701Z,101506.95
2018-04-06T09:36:21.191Z,101503.94
2018-04-06T09:38:48.665Z,101499.36
2018-04-06T09:41:16.175Z,101491.67
2018-04-06T09:43:43.662Z,101478.89
2018-04-06T09:46:11.139Z,101480.14
2018-04-06T09:48:38.622Z,101487.41
2018-04-06T09:51:06.106Z,101487.83
2018-04-06T09:53:33.628Z,101492.11
2018-04-06T09:56:01.175Z,101488.23
2018-04-06T09:58:28.650Z,101490.80
2018-04-06T10:00:58.491Z,101487.37
2018-04-06T10:03:25.971Z,101486.55
2018-04-06T10:05:53.463Z,101487.37
2018-04-06T10:08:21.028Z,101494.20
2018-04-06T10:10:48.521Z,101485.69
2018-04-06T10:13:16.097Z,101495.91
2018-04-06T10:15:43.585Z,101484.83
2018-04-06T10:18:11.072Z,101485.64
2018-04-06T10:20:38.552Z,101481.81
2018-04-06T10:23:06.042Z,101479.65
2018-04-06T10:25:33.646Z,101486.94
2018-04-06T10:28:01.200Z,101478.31
2018-04-06T10:30:28.654Z,101487.36
2018-04-06T10:32:56.158Z,101483.55
2018-04-06T10:35:23.695Z,101494.21
2018-04-06T10:37:51.219Z,101480.15
2018-04-06T10:40:18.771Z,101476.73
2018-04-06T10:42:46.270Z,101474.13
2018-04-06T10:45:13.750Z,101487.40
2018-04-06T10:47:41.238Z,101475.45
2018-04-06T10:50:08.718Z,101469.47
2018-04-06T10:52:36.189Z,101465.62
2018-04-06T10:55:03.706Z,101463.92
2018-04-06T10:57:31.203Z,101452.72
2018-04-06T10:59:58.688Z,101461.33
2018-04-06T11:02:26.182Z,101454.51
2018-04-06T11:04:53.658Z,101461.36
2018-04-06T11:07:21.139Z,101463.47
2018-04-06T11:09:48.645Z,101463.03
2018-04-06T11:12:16.132Z,101464.31
2018-04-06T11:14:45.220Z,101459.22
2018-04-06T11:17:12.743Z,101450.60
2018-04-06T11:19:40.203Z,101443.31
2018-04-06T11:22:07.694Z,101445.47
2018-04-06T11:24:35.195Z,101451.88
2018-04-06T11:27:02.673Z,101451.09
2018-04-06T11:29:30.178Z,101444.17
2018-04-06T11:31:57.662Z,101440.88
2018-04-06T11:34:25.156Z,101451.52
2018-04-06T11:36:52.637Z,101434.38
2018-04-06T11:39:20.154Z,101429.25
2018-04-06T11:41:47.646Z,101415.94
2018-04-06T11:44:15.130Z,101419.77
2018-04-06T11:46:42.609Z,101411.28
2018-04-06T11:49:10.093Z,101412.13
2018-04-06T11:51:37.575Z,101416.78
2018-04-06T11:54:05.059Z,101418.84
2018-04-06T11:56:32.722Z,101414.46
2018-04-06T11:59:00.197Z,101413.16
2018-04-06T12:01:27.681Z,101402.09
2018-04-06T12:03:58.163Z,101402.91
2018-04-06T12:06:25.659Z,101406.33
2018-04-06T12:08:53.154Z,101407.64
2018-04-06T12:11:20.632Z,101395.89
2018-04-06T12:13:48.102Z,101396.28
2018-04-06T12:16:15.601Z,101395.09
2018-04-06T12:18:43.098Z,101390.76
2018-04-06T12:21:10.603Z,101386.45
2018-04-06T12:23:38.099Z,101382.17
2018-04-06T12:26:05.609Z,101383.35
2018-04-06T12:28:33.080Z,101375.17
2018-04-06T12:31:00.574Z,101385.02
2018-04-06T12:33:28.127Z,101373.52
2018-04-06T12:35:55.709Z,101373.52
2018-04-06T12:38:23.380Z,101382.88
2018-04-06T12:40:50.942Z,101373.80
2018-04-06T12:43:20.388Z,101373.09
2018-04-06T12:45:47.935Z,101375.27
2018-04-06T12:48:15.482Z,101365.45
2018-04-06T12:50:42.983Z,101357.76
2018-04-06T12:53:10.677Z,101349.49
2018-04-06T12:55:38.208Z,101351.50
2018-04-06T12:58:05.716Z,101344.75
2018-04-06T13:00:33.198Z,101338.27
2018-04-06T13:03:00.746Z,101336.00
2018-04-06T13:05:28.179Z,101334.66
2018-04-06T13:07:55.661Z,101324.91
2018-04-06T13:10:23.358Z,101319.05
2018-04-06T13:12:50.848Z,101325.88
2018-04-06T13:15:18.346Z,101319.60
2018-04-06T13:17:45.834Z,101307.25
2018-04-06T13:20:13.318Z,101305.25
2018-04-06T13:22:40.810Z,101299.67
2018-04-06T13:25:08.286Z,101294.66
2018-04-06T13:27:35.765Z,101296.48
2018-04-06T13:30:03.237Z,101298.06
2018-04-06T13:32:30.725Z,101297.58
2018-04-06T13:34:58.218Z,101301.29
2018-04-06T13:37:27.917Z,101297.48
2018-04-06T13:39:55.645Z,101289.88
2018-04-06T13:42:23.137Z,101282.84
2018-04-06T13:44:51.101Z,101275.75
2018-04-06T13:47:18.591Z,101271.20
2018-04-06T13:49:46.246Z,101266.80
2018-04-06T13:52:13.979Z,101264.63
2018-04-06T13:54:41.508Z,101271.60
2018-04-06T13:57:09.349Z,101268.55
2018-04-06T13:59:36.867Z,101266.77
2018-04-06T14:02:04.392Z,101261.11
2018-04-06T14:04:31.913Z,101261.78
2018-04-06T14:07:01.171Z,101263.65
2018-04-06T14:09:28.682Z,101259.14
2018-04-06T14:11:56.240Z,101255.62
2018-04-06T14:14:23.780Z,101251.45
2018-04-06T14:16:52.287Z,101241.55
2018-04-06T14:19:19.781Z,101236.87
2018-04-06T14:21:47.325Z,101227.17
2018-04-06T14:24:17.090Z,101232.09
2018-04-06T14:26:44.783Z,101228.64
2018-04-06T14:29:12.364Z,101230.27
2018-04-06T14:31:39.866Z,101227.55
2018-04-06T14:34:07.348Z,101226.81
2018-04-06T14:36:34.818Z,101224.72
2018-04-06T14:39:02.298Z,101225.92
2018-04-06T14:41:29.795Z,101225.67
2018-04-06T14:43:57.305Z,101216.96
2018-04-06T14:46:24.845Z,101221.20
2018-04-06T14:48:52.686Z,101225.25
2018-04-06T14:51:20.198Z,101220.37
2018-04-06T14:53:47.691Z,101216.46
2018-04-06T14:56:15.425Z,101217.38
2018-04-06T14:58:43.765Z,101217.67
2018-04-06T15:01:11.254Z,101219.45
2018-04-06T15:03:39.913Z,101216.48
2018-04-06T15:06:07.398Z,101212.38
2018-04-06T15:08:37.569Z,101207.23
2018-04-06T15:11:05.053Z,101196.25
2018-04-06T15:16:06.769Z,101182.87
2018-04-06T15:18:34.266Z,101198.90
2018-04-06T15:21:01.748Z,101189.49
2018-04-06T15:23:29.253Z,101191.84
2018-04-06T15:25:56.747Z,101184.81
2018-04-06T15:28:24.248Z,101201.55
2018-04-06T15:30:51.753Z,101191.69
2018-04-06T15:33:20.143Z,101193.73
2018-04-06T15:35:47.621Z,101203.59
2018-04-06T15:38:16.600Z,101192.86
2018-04-06T15:40:44.136Z,101197.28
2018-04-06T15:43:15.491Z,101199.83
2018-04-06T15:45:43.006Z,101196.21
2018-04-06T15:48:10.534Z,101202.82
2018-04-06T15:50:38.016Z,101191.27
2018-04-06T15:53:05.521Z,101195.96
2018-04-06T15:55:33.027Z,101193.31
2018-04-06T15:58:00.597Z,101182.59
2018-04-06T16:00:28.133Z,101180.09
2018-04-06T16:02:55.825Z,101170.20
2018-04-06T16:05:25.603Z,101171.27
2018-04-06T16:07:53.081Z,101173.52
2018-04-06T16:10:23.430Z,101171.77
2018-04-06T16:12:50.930Z,101180.31
2018-04-06T16:15:18.424Z,101165.43
2018-04-06T16:17:45.923Z,101176.00
2018-04-06T16:20:13.436Z,101158.14
2018-04-06T16:22:42.234Z,101168.44
2018-04-06T16:25:09.750Z,101162.91
2018-04-06T16:27:37.248Z,101154.09
2018-04-06T16:30:04.729Z,101151.52
2018-04-06T16:32:32.298Z,101159.73
2018-04-06T16:34:59.776Z,101146.89
2018-04-06T16:37:27.264Z,101146.84
2018-04-06T16:39:54.831Z,101150.06
2018-04-06T16:42:22.393Z,101146.27
2018-04-06T16:44:49.911Z,101143.79
2018-04-06T16:47:18.479Z,101142.12
2018-04-06T16:49:46.140Z,101130.32
2018-04-06T16:52:14.247Z,101129.44
2018-04-06T16:54:41.727Z,101144.38
2018-04-06T16:57:11.164Z,101129.14
2018-04-06T16:59:39.158Z,101138.14
2018-04-06T17:02:06.659Z,101134.30
2018-04-06T17:04:34.173Z,101134.81
2018-04-06T17:07:01.668Z,101125.00
2018-04-06T17:09:29.169Z,101125.06
2018-04-06T17:11:56.746Z,101116.50
2018-04-06T17:14:24.336Z,101111.42
2018-04-06T17:16:51.870Z,101109.33
2018-04-06T17:19:19.451Z,101105.63
2018-04-06T17:21:46.925Z,101106.11
2018-04-06T17:24:14.402Z,101102.75
2018-04-06T17:26:41.994Z,101111.78
2018-04-06T17:29:09.514Z,101095.51
2018-04-06T17:31:38.615Z,101108.73
2018-04-06T17:34:06.112Z,101092.14
2018-04-06T17:36:33.648Z,101115.31
2018-04-06T17:39:02.667Z,101086.77
2018-04-06T17:41:30.930Z,101094.48
2018-04-06T17:44:00.768Z,101098.34
2018-04-06T17:46:28.265Z,101090.29
2018-04-06T17:48:55.747Z,101100.59
2018-04-06T17:51:23.276Z,101100.58
2018-04-06T17:53:50.782Z,101084.42
2018-04-06T17:56:18.319Z,101087.90
2018-04-06T17:58:45.851Z,101086.24
2018-04-06T18:01:13.412Z,101106.74
2018-04-06T18:03:40.908Z,101099.92
2018-04-06T18:06:08.377Z,101101.70
2018-04-06T18:08:36.087Z,101110.19
2018-04-06T18:11:03.602Z,101105.13
2018-04-06T18:13:31.119Z,101104.73
2018-04-06T18:15:58.653Z,101111.11
2018-04-06T18:18:26.170Z,101117.58
2018-04-06T18:20:53.674Z,101123.94
2018-04-06T18:23:21.193Z,101111.23
2018-04-06T18:25:48.721Z,101111.66
2018-04-06T18:28:16.255Z,101114.66
2018-04-06T18:30:43.808Z,101117.67
2018-04-06T18:33:11.308Z,101117.23
2018-04-06T18:35:38.782Z,101118.96
2018-04-06T18:38:06.281Z,101129.19
2018-04-06T18:40:33.764Z,101121.12
2018-04-06T18:43:01.314Z,101113.44
2018-04-06T18:45:28.847Z,101125.39
2018-04-06T18:47:56.320Z,101118.63
2018-04-06T18:50:23.825Z,101122.48
2018-04-06T18:52:51.339Z,101116.92
2018-04-06T18:55:18.829Z,101124.59
2018-04-06T18:57:46.328Z,101124.23
2018-04-06T19:00:14.208Z,101116.56
2018-04-06T19:02:42.553Z,101125.09
2018-04-06T19:05:10.069Z,101124.64
2018-04-06T19:08:04.789Z,101116.14
2018-04-06T19:10:32.285Z,101127.64
2018-04-06T19:13:00.028Z,101119.98
2018-04-06T19:15:27.774Z,101122.99
2018-04-06T19:17:55.306Z,101130.23
2018-04-06T19:20:22.890Z,101128.11
2018-04-06T19:22:51.402Z,101133.20
2018-04-06T19:25:18.946Z,101141.73
2018-04-06T19:27:47.338Z,101136.22
2018-04-06T19:30:16.034Z,101135.36
2018-04-06T19:32:43.609Z,101133.24
2018-04-06T19:35:11.235Z,101134.52
2018-04-06T19:37:38.822Z,101137.07
2018-04-06T19:40:06.342Z,101135.37
2018-04-06T19:42:33.934Z,101136.23
2018-04-06T19:45:01.931Z,101127.71
2018-04-06T19:47:29.580Z,101127.70
2018-04-06T19:49:58.537Z,101116.65
2018-04-06T19:52:26.048Z,101121.33
2018-04-06T19:54:53.968Z,101131.53
2018-04-06T19:57:21.634Z,101123.45
2018-04-06T19:59:49.343Z,101126.43
2018-04-06T20:02:16.821Z,101127.27
2018-04-06T20:04:44.890Z,101122.59
2018-04-06T20:07:12.404Z,101121.30
2018-04-06T20:09:39.917Z,101123.00
2018-04-06T20:12:07.439Z,101120.03
2018-04-06T20:14:35.058Z,101120.88
2018-04-06T20:17:02.577Z,101128.08
2018-04-06T20:19:30.793Z,101127.25
2018-04-06T20:21:58.909Z,101122.98
2018-04-06T20:24:26.395Z,101113.64
2018-04-06T20:26:53.903Z,101116.55
2018-04-06T20:29:21.407Z,101117.01
2018-04-06T20:31:49.148Z,101114.87
2018-04-06T20:34:16.635Z,101114.02
2018-04-06T20:36:44.156Z,101114.02
2018-04-06T20:39:11.678Z,101109.34
2018-04-06T20:41:39.217Z,101102.95
2018-04-06T20:44:06.734Z,101105.93
2018-04-06T20:46:34.312Z,101105.92
2018-04-06T20:49:01.792Z,101100.75
2018-04-06T20:51:29.319Z,101106.24
2018-04-06T20:53:56.959Z,101105.36
2018-04-06T20:56:24.474Z,101101.94
2018-04-06T20:58:51.984Z,101099.80
2018-04-06T21:01:19.554Z,101097.20
2018-04-06T21:03:47.113Z,101097.21
2018-04-06T21:06:14.649Z,101089.56
2018-04-06T21:08:42.203Z,101091.66
2018-04-06T21:11:09.726Z,101092.55
2018-04-06T21:13:37.284Z,101084.52
2018-04-06T21:16:04.786Z,101077.69
2018-04-06T21:18:32.324Z,101084.05
2018-04-06T21:20:59.813Z,101076.35
2018-04-06T21:23:27.365Z,101084.04
2018-04-06T21:25:55.429Z,101074.72
2018-04-06T21:28:23.819Z,101073.44
2018-04-06T21:30:51.323Z,101070.87
2018-04-06T21:33:18.865Z,101058.97
2018-04-06T21:35:46.509Z,101057.19
2018-04-06T21:38:14.142Z,101051.72
2018-04-06T21:40:42.552Z,101041.06
2018-04-06T21:43:10.174Z,101044.88
2018-04-06T21:45:37.758Z,101043.19
2018-04-06T21:48:05.369Z,101040.20
2018-04-06T21:50:33.289Z,101035.53
2018-04-06T21:53:00.926Z,101038.89
2018-04-06T21:55:28.573Z,101032.94
2018-04-06T21:57:56.225Z,101039.28
2018-04-06T22:00:23.840Z,101038.45
2018-04-06T22:02:51.340Z,101035.88
2018-04-06T22:05:18.955Z,101038.86
2018-04-06T22:07:46.714Z,101028.28
2018-04-06T22:10:14.716Z,101032.00
2018-04-06T22:12:42.396Z,101027.80
2018-04-06T22:15:09.883Z,101033.75
2018-04-06T22:17:37.560Z,101026.92
2018-04-06T22:20:05.247Z,101014.20
2018-04-06T22:35:28.018Z,101010.30
2018-04-06T22:37:55.686Z,101012.84
2018-04-06T22:40:23.266Z,101005.23
2018-04-06T22:42:50.919Z,101004.41
2018-04-06T22:45:18.480Z,100999.30
2018-04-06T22:47:46.052Z,100995.50
2018-04-06T22:50:13.808Z,100995.86
2018-04-06T22:52:41.381Z,100998.45
2018-04-06T22:55:08.920Z,100990.79
2018-04-06T22:57:36.408Z,100983.14
2018-04-06T23:00:03.910Z,100990.33
2018-04-06T23:02:31.419Z,100990.35
2018-04-06T23:04:58.904Z,100992.05
2018-04-06T23:07:26.423Z,100981.88
2018-04-06T23:09:53.974Z,100972.91
2018-04-06T23:12:21.471Z,100978.45
2018-04-06T23:14:48.970Z,100978.42
2018-04-06T23:17:17.694Z,100980.55
2018-04-06T23:19:45.206Z,100975.02
2018-04-06T23:22:13.506Z,100962.75
2018-04-06T23:24:41.005Z,100977.14
2018-04-06T23:27:08.530Z,100967.41
2018-04-06T23:29:36.022Z,100962.71
2018-04-06T23:32:03.544Z,100956.74
2018-04-06T23:34:31.040Z,100947.42
2018-04-06T23:36:58.521Z,100945.27
2018-04-06T23:39:26.012Z,100942.27
2018-04-06T23:41:53.513Z,100936.77
2018-04-06T23:44:21.028Z,100938.89
2018-04-06T23:46:48.514Z,100938.05
2018-04-06T23:49:16.039Z,100929.09
2018-04-06T23:51:43.516Z,100931.20
2018-04-06T23:54:11.020Z,100926.54
2018-04-06T23:56:38.524Z,100923.55
2018-04-06T23:59:06.008Z,100914.68
